sensor_id;sensor_type;location;lat;lon;timestamp;P1;durP1;ratioP1;P2;durP2;ratioP2
23402;SDS011;11874;48.228;11.684;2022-08-19T00:00:01;6.40;;;5.13;;
23402;SDS011;11874;48.228;11.684;2022-08-19T00:02:30;5.15;;;4.63;;
23402;SDS011;11874;48.228;11.684;2022-08-19T00:04:58;7.07;;;4.78;;
23402;SDS011;11874;48.228;11.684;2022-08-19T00:07:26;5.18;;;4.68;;
23402;SDS011;11874;48.228;11.684;2022-08-19T00:09:56;4.90;;;4.32;;
23402;SDS011;11874;48.228;11.684;2022-08-19T00:12:24;5.57;;;4.47;;
23402;SDS011;11874;48.228;11.684;2022-08-19T00:14:52;5.38;;;4.82;;
23402;SDS011;11874;48.228;11.684;2022-08-19T00:17:20;5.18;;;4.68;;
23402;SDS011;11874;48.228;11.684;2022-08-19T00:19:48;4.97;;;4.30;;
23402;SDS011;11874;48.228;11.684;2022-08-19T00:22:16;4.70;;;4.30;;
23402;SDS011;11874;48.228;11.684;2022-08-19T00:24:44;4.68;;;4.10;;
23402;SDS011;11874;48.228;11.684;2022-08-19T00:27:17;5.43;;;4.90;;
23402;SDS011;11874;48.228;11.684;2022-08-19T00:29:51;4.78;;;4.28;;
23402;SDS011;11874;48.228;11.684;2022-08-19T00:32:20;5.63;;;5.03;;
23402;SDS011;11874;48.228;11.684;2022-08-19T00:34:49;4.80;;;4.40;;
23402;SDS011;11874;48.228;11.684;2022-08-19T00:37:19;4.53;;;4.13;;
23402;SDS011;11874;48.228;11.684;2022-08-19T00:39:48;6.57;;;4.40;;
23402;SDS011;11874;48.228;11.684;2022-08-19T00:42:18;6.53;;;5.13;;
23402;SDS011;11874;48.228;11.684;2022-08-19T00:44:47;5.65;;;5.15;;
23402;SDS011;11874;48.228;11.684;2022-08-19T00:47:16;6.25;;;5.70;;
23402;SDS011;11874;48.228;11.684;2022-08-19T00:49:46;7.20;;;5.45;;
23402;SDS011;11874;48.228;11.684;2022-08-19T00:52:19;7.15;;;5.88;;
23402;SDS011;11874;48.228;11.684;2022-08-19T00:54:50;6.50;;;5.60;;
23402;SDS011;11874;48.228;11.684;2022-08-19T00:57:21;6.25;;;5.57;;
23402;SDS011;11874;48.228;11.684;2022-08-19T00:59:54;6.82;;;5.82;;
23402;SDS011;11874;48.228;11.684;2022-08-19T01:02:28;7.07;;;6.13;;
23402;SDS011;11874;48.228;11.684;2022-08-19T01:04:56;7.03;;;6.32;;
23402;SDS011;11874;48.228;11.684;2022-08-19T01:07:26;7.65;;;6.65;;
23402;SDS011;11874;48.228;11.684;2022-08-19T01:10:00;9.07;;;6.88;;
23402;SDS011;11874;48.228;11.684;2022-08-19T01:12:31;8.13;;;7.30;;
23402;SDS011;11874;48.228;11.684;2022-08-19T01:15:00;8.25;;;7.43;;
23402;SDS011;11874;48.228;11.684;2022-08-19T01:17:28;11.82;;;7.15;;
23402;SDS011;11874;48.228;11.684;2022-08-19T01:19:57;9.48;;;7.53;;
23402;SDS011;11874;48.228;11.684;2022-08-19T01:22:28;8.82;;;7.88;;
23402;SDS011;11874;48.228;11.684;2022-08-19T01:24:59;9.43;;;8.43;;
23402;SDS011;11874;48.228;11.684;2022-08-19T01:27:36;8.18;;;7.40;;
23402;SDS011;11874;48.228;11.684;2022-08-19T01:30:10;9.93;;;7.88;;
23402;SDS011;11874;48.228;11.684;2022-08-19T01:32:39;8.60;;;7.72;;
23402;SDS011;11874;48.228;11.684;2022-08-19T01:35:07;10.30;;;8.38;;
23402;SDS011;11874;48.228;11.684;2022-08-19T01:37:44;9.98;;;7.63;;
23402;SDS011;11874;48.228;11.684;2022-08-19T01:40:13;9.50;;;8.48;;
23402;SDS011;11874;48.228;11.684;2022-08-19T01:42:42;9.43;;;7.97;;
23402;SDS011;11874;48.228;11.684;2022-08-19T01:45:10;11.30;;;8.45;;
23402;SDS011;11874;48.228;11.684;2022-08-19T01:47:37;10.30;;;8.38;;
23402;SDS011;11874;48.228;11.684;2022-08-19T01:50:06;9.68;;;8.23;;
23402;SDS011;11874;48.228;11.684;2022-08-19T01:52:36;11.15;;;8.75;;
23402;SDS011;11874;48.228;11.684;2022-08-19T01:55:07;9.65;;;8.60;;
23402;SDS011;11874;48.228;11.684;2022-08-19T02:00:08;9.63;;;8.63;;
23402;SDS011;11874;48.228;11.684;2022-08-19T02:02:38;12.40;;;8.60;;
23402;SDS011;11874;48.228;11.684;2022-08-19T02:05:09;10.33;;;9.10;;
23402;SDS011;11874;48.228;11.684;2022-08-19T02:07:39;10.95;;;9.80;;
23402;SDS011;11874;48.228;11.684;2022-08-19T02:10:11;11.55;;;8.65;;
23402;SDS011;11874;48.228;11.684;2022-08-19T02:12:42;11.00;;;9.30;;
23402;SDS011;11874;48.228;11.684;2022-08-19T02:15:10;9.77;;;8.77;;
23402;SDS011;11874;48.228;11.684;2022-08-19T02:17:39;9.88;;;8.60;;
23402;SDS011;11874;48.228;11.684;2022-08-19T02:20:08;10.85;;;9.35;;
23402;SDS011;11874;48.228;11.684;2022-08-19T02:22:37;9.88;;;8.85;;
23402;SDS011;11874;48.228;11.684;2022-08-19T02:25:09;11.20;;;9.35;;
23402;SDS011;11874;48.228;11.684;2022-08-19T02:27:38;10.35;;;9.25;;
23402;SDS011;11874;48.228;11.684;2022-08-19T02:30:08;9.80;;;8.80;;
23402;SDS011;11874;48.228;11.684;2022-08-19T02:32:39;11.23;;;9.52;;
23402;SDS011;11874;48.228;11.684;2022-08-19T02:35:10;12.25;;;9.20;;
23402;SDS011;11874;48.228;11.684;2022-08-19T02:37:39;11.10;;;8.80;;
23402;SDS011;11874;48.228;11.684;2022-08-19T02:40:26;9.60;;;8.60;;
23402;SDS011;11874;48.228;11.684;2022-08-19T02:42:55;10.23;;;9.13;;
23402;SDS011;11874;48.228;11.684;2022-08-19T02:45:23;10.95;;;8.82;;
23402;SDS011;11874;48.228;11.684;2022-08-19T02:47:51;9.43;;;8.52;;
23402;SDS011;11874;48.228;11.684;2022-08-19T02:50:19;9.85;;;8.85;;
23402;SDS011;11874;48.228;11.684;2022-08-19T02:52:47;11.38;;;8.15;;
23402;SDS011;11874;48.228;11.684;2022-08-19T02:55:15;9.18;;;7.97;;
23402;SDS011;11874;48.228;11.684;2022-08-19T02:57:45;9.50;;;8.50;;
23402;SDS011;11874;48.228;11.684;2022-08-19T03:00:13;9.35;;;8.23;;
23402;SDS011;11874;48.228;11.684;2022-08-19T03:02:41;10.65;;;8.48;;
23402;SDS011;11874;48.228;11.684;2022-08-19T03:05:09;10.30;;;9.20;;
23402;SDS011;11874;48.228;11.684;2022-08-19T03:07:37;10.20;;;8.57;;
23402;SDS011;11874;48.228;11.684;2022-08-19T03:10:06;9.98;;;8.43;;
23402;SDS011;11874;48.228;11.684;2022-08-19T03:12:35;9.02;;;8.13;;
23402;SDS011;11874;48.228;11.684;2022-08-19T03:15:06;9.90;;;8.55;;
23402;SDS011;11874;48.228;11.684;2022-08-19T03:17:35;8.85;;;7.95;;
23402;SDS011;11874;48.228;11.684;2022-08-19T03:20:03;10.57;;;8.18;;
23402;SDS011;11874;48.228;11.684;2022-08-19T03:22:32;9.77;;;7.85;;
23402;SDS011;11874;48.228;11.684;2022-08-19T03:24:59;10.93;;;8.68;;
23402;SDS011;11874;48.228;11.684;2022-08-19T03:27:27;9.00;;;8.05;;
23402;SDS011;11874;48.228;11.684;2022-08-19T03:32:29;8.80;;;7.90;;
23402;SDS011;11874;48.228;11.684;2022-08-19T03:34:58;10.20;;;8.35;;
23402;SDS011;11874;48.228;11.684;2022-08-19T03:37:26;9.70;;;8.68;;
23402;SDS011;11874;48.228;11.684;2022-08-19T03:39:54;9.57;;;7.38;;
23402;SDS011;11874;48.228;11.684;2022-08-19T03:42:22;9.75;;;8.75;;
23402;SDS011;11874;48.228;11.684;2022-08-19T03:45:12;8.75;;;7.85;;
23402;SDS011;11874;48.228;11.684;2022-08-19T03:47:41;9.25;;;8.32;;
23402;SDS011;11874;48.228;11.684;2022-08-19T03:50:09;10.07;;;9.07;;
23402;SDS011;11874;48.228;11.684;2022-08-19T03:52:37;11.90;;;8.50;;
23402;SDS011;11874;48.228;11.684;2022-08-19T03:55:10;12.60;;;9.38;;
23402;SDS011;11874;48.228;11.684;2022-08-19T03:57:38;12.50;;;9.48;;
23402;SDS011;11874;48.228;11.684;2022-08-19T04:00:06;10.63;;;8.80;;
23402;SDS011;11874;48.228;11.684;2022-08-19T04:02:40;10.93;;;9.35;;
23402;SDS011;11874;48.228;11.684;2022-08-19T04:05:26;11.65;;;8.15;;
23402;SDS011;11874;48.228;11.684;2022-08-19T04:07:54;9.65;;;8.48;;
23402;SDS011;11874;48.228;11.684;2022-08-19T04:10:24;11.30;;;8.98;;
23402;SDS011;11874;48.228;11.684;2022-08-19T04:12:52;10.50;;;8.75;;
23402;SDS011;11874;48.228;11.684;2022-08-19T04:15:20;11.30;;;9.13;;
23402;SDS011;11874;48.228;11.684;2022-08-19T04:17:49;10.68;;;9.00;;
23402;SDS011;11874;48.228;11.684;2022-08-19T04:20:17;11.30;;;9.45;;
23402;SDS011;11874;48.228;11.684;2022-08-19T04:22:45;10.88;;;9.02;;
23402;SDS011;11874;48.228;11.684;2022-08-19T04:25:13;10.70;;;9.35;;
23402;SDS011;11874;48.228;11.684;2022-08-19T04:27:41;9.93;;;8.93;;
23402;SDS011;11874;48.228;11.684;2022-08-19T04:30:12;13.05;;;10.45;;
23402;SDS011;11874;48.228;11.684;2022-08-19T04:32:41;10.20;;;9.10;;
23402;SDS011;11874;48.228;11.684;2022-08-19T04:35:11;11.75;;;10.00;;
23402;SDS011;11874;48.228;11.684;2022-08-19T04:37:43;11.50;;;9.77;;
23402;SDS011;11874;48.228;11.684;2022-08-19T04:40:11;11.90;;;9.77;;
23402;SDS011;11874;48.228;11.684;2022-08-19T04:42:57;12.40;;;10.10;;
23402;SDS011;11874;48.228;11.684;2022-08-19T04:45:24;11.68;;;9.30;;
23402;SDS011;11874;48.228;11.684;2022-08-19T04:47:54;12.07;;;9.68;;
23402;SDS011;11874;48.228;11.684;2022-08-19T04:50:44;11.93;;;9.50;;
23402;SDS011;11874;48.228;11.684;2022-08-19T04:53:12;13.68;;;10.15;;
23402;SDS011;11874;48.228;11.684;2022-08-19T04:55:40;11.40;;;10.15;;
23402;SDS011;11874;48.228;11.684;2022-08-19T04:58:09;10.40;;;9.30;;
23402;SDS011;11874;48.228;11.684;2022-08-19T05:00:37;11.18;;;8.50;;
23402;SDS011;11874;48.228;11.684;2022-08-19T05:03:06;9.68;;;8.43;;
23402;SDS011;11874;48.228;11.684;2022-08-19T05:05:38;9.35;;;8.43;;
23402;SDS011;11874;48.228;11.684;2022-08-19T05:08:11;11.23;;;9.23;;
23402;SDS011;11874;48.228;11.684;2022-08-19T05:10:40;10.27;;;8.75;;
23402;SDS011;11874;48.228;11.684;2022-08-19T05:13:08;10.77;;;8.63;;
23402;SDS011;11874;48.228;11.684;2022-08-19T05:15:37;10.30;;;8.82;;
23402;SDS011;11874;48.228;11.684;2022-08-19T05:18:04;11.45;;;9.63;;
23402;SDS011;11874;48.228;11.684;2022-08-19T05:20:50;11.77;;;9.68;;
23402;SDS011;11874;48.228;11.684;2022-08-19T05:23:42;10.48;;;9.27;;
23402;SDS011;11874;48.228;11.684;2022-08-19T05:26:11;11.57;;;9.85;;
23402;SDS011;11874;48.228;11.684;2022-08-19T05:28:39;10.93;;;9.00;;
23402;SDS011;11874;48.228;11.684;2022-08-19T05:31:07;12.25;;;8.73;;
23402;SDS011;11874;48.228;11.684;2022-08-19T05:33:34;11.60;;;8.95;;
23402;SDS011;11874;48.228;11.684;2022-08-19T05:36:03;10.23;;;9.15;;
23402;SDS011;11874;48.228;11.684;2022-08-19T05:38:33;10.57;;;9.48;;
23402;SDS011;11874;48.228;11.684;2022-08-19T05:41:06;9.90;;;8.90;;
23402;SDS011;11874;48.228;11.684;2022-08-19T05:43:35;10.27;;;9.15;;
23402;SDS011;11874;48.228;11.684;2022-08-19T05:46:03;10.35;;;9.10;;
23402;SDS011;11874;48.228;11.684;2022-08-19T05:48:32;11.98;;;9.40;;
23402;SDS011;11874;48.228;11.684;2022-08-19T05:51:03;13.15;;;9.65;;
23402;SDS011;11874;48.228;11.684;2022-08-19T05:53:32;11.35;;;9.70;;
23402;SDS011;11874;48.228;11.684;2022-08-19T05:56:03;11.55;;;8.60;;
23402;SDS011;11874;48.228;11.684;2022-08-19T05:58:33;12.70;;;9.73;;
23402;SDS011;11874;48.228;11.684;2022-08-19T06:01:01;10.63;;;9.40;;
23402;SDS011;11874;48.228;11.684;2022-08-19T06:03:31;14.73;;;9.93;;
23402;SDS011;11874;48.228;11.684;2022-08-19T06:06:00;11.00;;;9.75;;
23402;SDS011;11874;48.228;11.684;2022-08-19T06:08:28;14.57;;;10.18;;
23402;SDS011;11874;48.228;11.684;2022-08-19T06:11:11;12.93;;;10.97;;
23402;SDS011;11874;48.228;11.684;2022-08-19T06:13:42;17.50;;;11.27;;
23402;SDS011;11874;48.228;11.684;2022-08-19T06:16:11;12.40;;;10.48;;
23402;SDS011;11874;48.228;11.684;2022-08-19T06:18:39;14.80;;;11.52;;
23402;SDS011;11874;48.228;11.684;2022-08-19T06:21:06;13.18;;;11.60;;
23402;SDS011;11874;48.228;11.684;2022-08-19T06:23:34;12.80;;;11.40;;
23402;SDS011;11874;48.228;11.684;2022-08-19T06:26:02;13.30;;;11.95;;
23402;SDS011;11874;48.228;11.684;2022-08-19T06:28:30;12.95;;;10.82;;
23402;SDS011;11874;48.228;11.684;2022-08-19T06:31:00;14.40;;;11.90;;
23402;SDS011;11874;48.228;11.684;2022-08-19T06:33:33;16.38;;;11.88;;
23402;SDS011;11874;48.228;11.684;2022-08-19T06:36:01;14.63;;;11.93;;
23402;SDS011;11874;48.228;11.684;2022-08-19T06:38:29;14.93;;;12.88;;
23402;SDS011;11874;48.228;11.684;2022-08-19T06:41:00;16.00;;;12.18;;
23402;SDS011;11874;48.228;11.684;2022-08-19T06:43:33;24.33;;;15.50;;
23402;SDS011;11874;48.228;11.684;2022-08-19T06:46:10;29.15;;;18.45;;
23402;SDS011;11874;48.228;11.684;2022-08-19T06:48:40;24.55;;;17.73;;
23402;SDS011;11874;48.228;11.684;2022-08-19T06:51:11;26.17;;;16.25;;
23402;SDS011;11874;48.228;11.684;2022-08-19T06:53:44;25.10;;;16.58;;
23402;SDS011;11874;48.228;11.684;2022-08-19T06:56:14;19.83;;;15.93;;
23402;SDS011;11874;48.228;11.684;2022-08-19T06:58:43;19.35;;;15.32;;
23402;SDS011;11874;48.228;11.684;2022-08-19T07:01:13;17.92;;;14.07;;
23402;SDS011;11874;48.228;11.684;2022-08-19T07:03:41;17.50;;;15.45;;
23402;SDS011;11874;48.228;11.684;2022-08-19T07:06:10;20.77;;;15.23;;
23402;SDS011;11874;48.228;11.684;2022-08-19T07:09:02;17.38;;;14.60;;
23402;SDS011;11874;48.228;11.684;2022-08-19T07:11:30;17.90;;;14.80;;
23402;SDS011;11874;48.228;11.684;2022-08-19T07:13:59;18.25;;;14.73;;
23402;SDS011;11874;48.228;11.684;2022-08-19T07:16:29;19.77;;;16.15;;
23402;SDS011;11874;48.228;11.684;2022-08-19T07:18:57;22.65;;;15.80;;
23402;SDS011;11874;48.228;11.684;2022-08-19T07:21:39;17.27;;;14.25;;
23402;SDS011;11874;48.228;11.684;2022-08-19T07:24:07;19.10;;;14.38;;
23402;SDS011;11874;48.228;11.684;2022-08-19T07:26:37;20.05;;;14.70;;
23402;SDS011;11874;48.228;11.684;2022-08-19T07:29:07;18.05;;;13.38;;
23402;SDS011;11874;48.228;11.684;2022-08-19T07:31:37;15.93;;;14.23;;
23402;SDS011;11874;48.228;11.684;2022-08-19T07:34:09;19.48;;;14.98;;
23402;SDS011;11874;48.228;11.684;2022-08-19T07:36:39;19.50;;;16.05;;
23402;SDS011;11874;48.228;11.684;2022-08-19T07:39:09;19.70;;;15.15;;
23402;SDS011;11874;48.228;11.684;2022-08-19T07:41:39;19.55;;;15.25;;
23402;SDS011;11874;48.228;11.684;2022-08-19T07:44:08;21.73;;;16.35;;
23402;SDS011;11874;48.228;11.684;2022-08-19T07:46:38;25.08;;;18.88;;
23402;SDS011;11874;48.228;11.684;2022-08-19T07:49:08;26.38;;;20.13;;
23402;SDS011;11874;48.228;11.684;2022-08-19T07:51:39;23.77;;;18.85;;
23402;SDS011;11874;48.228;11.684;2022-08-19T07:54:07;24.92;;;19.88;;
23402;SDS011;11874;48.228;11.684;2022-08-19T07:56:35;24.20;;;17.27;;
23402;SDS011;11874;48.228;11.684;2022-08-19T07:59:03;23.20;;;18.50;;
23402;SDS011;11874;48.228;11.684;2022-08-19T08:01:31;23.02;;;19.15;;
23402;SDS011;11874;48.228;11.684;2022-08-19T08:04:08;24.95;;;19.40;;
23402;SDS011;11874;48.228;11.684;2022-08-19T08:06:53;22.33;;;18.38;;
23402;SDS011;11874;48.228;11.684;2022-08-19T08:09:40;23.10;;;18.08;;
23402;SDS011;11874;48.228;11.684;2022-08-19T08:12:16;24.98;;;20.02;;
23402;SDS011;11874;48.228;11.684;2022-08-19T08:15:01;23.20;;;18.83;;
23402;SDS011;11874;48.228;11.684;2022-08-19T08:17:34;25.33;;;20.00;;
23402;SDS011;11874;48.228;11.684;2022-08-19T08:20:18;26.92;;;20.52;;
23402;SDS011;11874;48.228;11.684;2022-08-19T08:22:47;27.52;;;20.10;;
23402;SDS011;11874;48.228;11.684;2022-08-19T08:25:33;27.40;;;20.98;;
23402;SDS011;11874;48.228;11.684;2022-08-19T08:28:02;24.25;;;19.85;;
23402;SDS011;11874;48.228;11.684;2022-08-19T08:30:31;25.73;;;19.95;;
23402;SDS011;11874;48.228;11.684;2022-08-19T08:33:02;29.98;;;21.75;;
23402;SDS011;11874;48.228;11.684;2022-08-19T08:35:32;27.63;;;21.08;;
23402;SDS011;11874;48.228;11.684;2022-08-19T08:38:00;29.45;;;21.58;;
23402;SDS011;11874;48.228;11.684;2022-08-19T08:40:30;25.77;;;20.30;;
23402;SDS011;11874;48.228;11.684;2022-08-19T08:43:06;26.50;;;20.00;;
23402;SDS011;11874;48.228;11.684;2022-08-19T08:45:38;29.63;;;22.10;;
23402;SDS011;11874;48.228;11.684;2022-08-19T08:48:19;28.95;;;22.13;;
23402;SDS011;11874;48.228;11.684;2022-08-19T08:50:52;30.08;;;22.75;;
23402;SDS011;11874;48.228;11.684;2022-08-19T08:55:57;28.58;;;21.38;;
23402;SDS011;11874;48.228;11.684;2022-08-19T08:58:28;30.75;;;22.75;;
23402;SDS011;11874;48.228;11.684;2022-08-19T09:01:00;36.80;;;23.73;;
23402;SDS011;11874;48.228;11.684;2022-08-19T09:03:29;30.00;;;22.63;;
23402;SDS011;11874;48.228;11.684;2022-08-19T09:06:00;31.63;;;22.92;;
23402;SDS011;11874;48.228;11.684;2022-08-19T09:08:40;32.38;;;23.40;;
23402;SDS011;11874;48.228;11.684;2022-08-19T09:11:15;33.20;;;24.85;;
23402;SDS011;11874;48.228;11.684;2022-08-19T09:14:10;33.25;;;25.55;;
23402;SDS011;11874;48.228;11.684;2022-08-19T09:17:05;33.55;;;25.35;;
23402;SDS011;11874;48.228;11.684;2022-08-19T09:19:35;30.05;;;22.58;;
23402;SDS011;11874;48.228;11.684;2022-08-19T09:22:15;42.78;;;27.70;;
23402;SDS011;11874;48.228;11.684;2022-08-19T09:24:51;38.95;;;27.02;;
23402;SDS011;11874;48.228;11.684;2022-08-19T09:27:19;36.28;;;27.13;;
23402;SDS011;11874;48.228;11.684;2022-08-19T09:30:09;44.03;;;28.60;;
23402;SDS011;11874;48.228;11.684;2022-08-19T09:32:41;39.67;;;27.85;;
23402;SDS011;11874;48.228;11.684;2022-08-19T09:35:12;31.08;;;22.00;;
23402;SDS011;11874;48.228;11.684;2022-08-19T09:37:42;39.40;;;27.42;;
23402;SDS011;11874;48.228;11.684;2022-08-19T09:40:10;37.33;;;27.67;;
23402;SDS011;11874;48.228;11.684;2022-08-19T09:42:40;42.25;;;28.55;;
23402;SDS011;11874;48.228;11.684;2022-08-19T09:45:15;47.00;;;28.48;;
23402;SDS011;11874;48.228;11.684;2022-08-19T09:47:47;42.10;;;27.33;;
23402;SDS011;11874;48.228;11.684;2022-08-19T09:50:17;40.88;;;28.38;;
23402;SDS011;11874;48.228;11.684;2022-08-19T09:52:46;37.90;;;27.02;;
23402;SDS011;11874;48.228;11.684;2022-08-19T09:55:23;41.28;;;26.13;;
23402;SDS011;11874;48.228;11.684;2022-08-19T09:57:57;38.95;;;26.38;;
23402;SDS011;11874;48.228;11.684;2022-08-19T10:00:25;31.60;;;23.88;;
23402;SDS011;11874;48.228;11.684;2022-08-19T10:02:53;41.17;;;27.85;;
23402;SDS011;11874;48.228;11.684;2022-08-19T10:05:21;35.40;;;26.00;;
23402;SDS011;11874;48.228;11.684;2022-08-19T10:08:09;37.20;;;27.08;;
23402;SDS011;11874;48.228;11.684;2022-08-19T10:10:38;33.47;;;24.13;;
23402;SDS011;11874;48.228;11.684;2022-08-19T10:13:11;33.03;;;24.45;;
23402;SDS011;11874;48.228;11.684;2022-08-19T10:15:40;37.03;;;25.70;;
23402;SDS011;11874;48.228;11.684;2022-08-19T10:18:13;29.02;;;23.08;;
23402;SDS011;11874;48.228;11.684;2022-08-19T10:20:42;28.08;;;22.63;;
23402;SDS011;11874;48.228;11.684;2022-08-19T10:23:18;27.27;;;22.77;;
23402;SDS011;11874;48.228;11.684;2022-08-19T10:25:48;36.77;;;25.60;;
23402;SDS011;11874;48.228;11.684;2022-08-19T10:28:19;32.42;;;23.88;;
23402;SDS011;11874;48.228;11.684;2022-08-19T10:30:49;33.45;;;25.13;;
23402;SDS011;11874;48.228;11.684;2022-08-19T10:33:16;31.67;;;24.85;;
23402;SDS011;11874;48.228;11.684;2022-08-19T10:36:06;31.05;;;24.30;;
23402;SDS011;11874;48.228;11.684;2022-08-19T10:38:37;29.38;;;22.65;;
23402;SDS011;11874;48.228;11.684;2022-08-19T10:41:18;30.58;;;23.38;;
23402;SDS011;11874;48.228;11.684;2022-08-19T10:43:50;29.58;;;22.63;;
23402;SDS011;11874;48.228;11.684;2022-08-19T10:46:20;28.07;;;21.97;;
23402;SDS011;11874;48.228;11.684;2022-08-19T10:48:50;30.73;;;22.70;;
23402;SDS011;11874;48.228;11.684;2022-08-19T10:51:18;31.60;;;21.80;;
23402;SDS011;11874;48.228;11.684;2022-08-19T10:54:20;30.60;;;22.55;;
23402;SDS011;11874;48.228;11.684;2022-08-19T10:56:58;30.30;;;21.80;;
23402;SDS011;11874;48.228;11.684;2022-08-19T10:59:25;25.75;;;20.05;;
23402;SDS011;11874;48.228;11.684;2022-08-19T11:02:01;28.05;;;20.88;;
23402;SDS011;11874;48.228;11.684;2022-08-19T11:04:32;27.40;;;21.02;;
23402;SDS011;11874;48.228;11.684;2022-08-19T11:07:01;25.08;;;21.00;;
23402;SDS011;11874;48.228;11.684;2022-08-19T11:09:31;26.02;;;18.83;;
23402;SDS011;11874;48.228;11.684;2022-08-19T11:12:05;22.85;;;19.40;;
23402;SDS011;11874;48.228;11.684;2022-08-19T11:14:34;22.95;;;19.10;;
23402;SDS011;11874;48.228;11.684;2022-08-19T11:17:02;24.48;;;18.85;;
23402;SDS011;11874;48.228;11.684;2022-08-19T11:19:31;19.83;;;16.08;;
23402;SDS011;11874;48.228;11.684;2022-08-19T11:21:59;19.92;;;15.57;;
23402;SDS011;11874;48.228;11.684;2022-08-19T11:24:30;19.27;;;14.00;;
23402;SDS011;11874;48.228;11.684;2022-08-19T11:27:01;18.83;;;15.82;;
23402;SDS011;11874;48.228;11.684;2022-08-19T11:29:30;18.98;;;14.70;;
23402;SDS011;11874;48.228;11.684;2022-08-19T11:32:02;16.88;;;13.68;;
23402;SDS011;11874;48.228;11.684;2022-08-19T11:34:31;14.33;;;12.83;;
23402;SDS011;11874;48.228;11.684;2022-08-19T11:37:01;14.13;;;12.63;;
23402;SDS011;11874;48.228;11.684;2022-08-19T11:39:31;14.52;;;11.77;;
23402;SDS011;11874;48.228;11.684;2022-08-19T11:42:01;12.82;;;9.18;;
23402;SDS011;11874;48.228;11.684;2022-08-19T11:44:50;10.55;;;8.20;;
23402;SDS011;11874;48.228;11.684;2022-08-19T11:47:19;9.52;;;8.32;;
23402;SDS011;11874;48.228;11.684;2022-08-19T11:49:47;7.72;;;6.93;;
23402;SDS011;11874;48.228;11.684;2022-08-19T11:52:15;7.10;;;6.40;;
23402;SDS011;11874;48.228;11.684;2022-08-19T11:54:44;5.30;;;4.80;;
23402;SDS011;11874;48.228;11.684;2022-08-19T11:57:12;5.22;;;4.47;;
23402;SDS011;11874;48.228;11.684;2022-08-19T11:59:47;4.65;;;4.15;;
23402;SDS011;11874;48.228;11.684;2022-08-19T12:02:16;4.40;;;4.00;;
23402;SDS011;11874;48.228;11.684;2022-08-19T12:04:45;5.95;;;3.30;;
23402;SDS011;11874;48.228;11.684;2022-08-19T12:07:13;3.22;;;2.92;;
23402;SDS011;11874;48.228;11.684;2022-08-19T12:09:41;3.10;;;2.80;;
23402;SDS011;11874;48.228;11.684;2022-08-19T12:12:12;2.85;;;2.40;;
23402;SDS011;11874;48.228;11.684;2022-08-19T12:14:40;3.35;;;2.80;;
23402;SDS011;11874;48.228;11.684;2022-08-19T12:17:08;3.70;;;2.70;;
23402;SDS011;11874;48.228;11.684;2022-08-19T12:19:39;2.90;;;2.65;;
23402;SDS011;11874;48.228;11.684;2022-08-19T12:22:06;2.88;;;2.33;;
23402;SDS011;11874;48.228;11.684;2022-08-19T12:24:34;3.05;;;2.60;;
23402;SDS011;11874;48.228;11.684;2022-08-19T12:27:02;2.78;;;2.50;;
23402;SDS011;11874;48.228;11.684;2022-08-19T12:29:39;2.38;;;2.17;;
23402;SDS011;11874;48.228;11.684;2022-08-19T12:32:07;2.70;;;2.50;;
23402;SDS011;11874;48.228;11.684;2022-08-19T12:34:37;3.28;;;2.30;;
23402;SDS011;11874;48.228;11.684;2022-08-19T12:37:06;2.50;;;2.30;;
23402;SDS011;11874;48.228;11.684;2022-08-19T12:39:34;2.38;;;1.98;;
23402;SDS011;11874;48.228;11.684;2022-08-19T12:42:03;1.90;;;1.80;;
23402;SDS011;11874;48.228;11.684;2022-08-19T12:44:33;2.17;;;2.00;;
23402;SDS011;11874;48.228;11.684;2022-08-19T12:47:02;2.90;;;2.00;;
23402;SDS011;11874;48.228;11.684;2022-08-19T12:49:33;2.85;;;1.70;;
23402;SDS011;11874;48.228;11.684;2022-08-19T12:52:20;1.80;;;1.65;;
23402;SDS011;11874;48.228;11.684;2022-08-19T12:54:49;2.38;;;1.52;;
23402;SDS011;11874;48.228;11.684;2022-08-19T12:57:20;1.88;;;1.50;;
23402;SDS011;11874;48.228;11.684;2022-08-19T12:59:57;2.05;;;1.30;;
23402;SDS011;11874;48.228;11.684;2022-08-19T13:02:27;1.33;;;1.10;;
23402;SDS011;11874;48.228;11.684;2022-08-19T13:04:55;1.30;;;1.20;;
23402;SDS011;11874;48.228;11.684;2022-08-19T13:07:23;1.55;;;1.45;;
23402;SDS011;11874;48.228;11.684;2022-08-19T13:09:51;1.50;;;1.35;;
23402;SDS011;11874;48.228;11.684;2022-08-19T13:12:19;2.40;;;1.55;;
23402;SDS011;11874;48.228;11.684;2022-08-19T13:14:50;1.63;;;1.52;;
23402;SDS011;11874;48.228;11.684;2022-08-19T13:17:18;1.40;;;1.30;;
23402;SDS011;11874;48.228;11.684;2022-08-19T13:19:47;1.63;;;1.52;;
23402;SDS011;11874;48.228;11.684;2022-08-19T13:22:17;1.60;;;1.48;;
23402;SDS011;11874;48.228;11.684;2022-08-19T13:24:45;1.95;;;1.60;;
23402;SDS011;11874;48.228;11.684;2022-08-19T13:27:13;1.15;;;1.05;;
23402;SDS011;11874;48.228;11.684;2022-08-19T13:29:41;1.17;;;1.10;;
23402;SDS011;11874;48.228;11.684;2022-08-19T13:32:28;6.90;;;1.40;;
23402;SDS011;11874;48.228;11.684;2022-08-19T13:35:15;1.77;;;1.67;;
23402;SDS011;11874;48.228;11.684;2022-08-19T13:37:44;1.70;;;1.60;;
23402;SDS011;11874;48.228;11.684;2022-08-19T13:40:13;1.75;;;1.65;;
23402;SDS011;11874;48.228;11.684;2022-08-19T13:42:45;2.72;;;2.30;;
23402;SDS011;11874;48.228;11.684;2022-08-19T13:45:15;2.63;;;2.38;;
23402;SDS011;11874;48.228;11.684;2022-08-19T13:47:45;3.30;;;3.00;;
23402;SDS011;11874;48.228;11.684;2022-08-19T13:50:16;3.60;;;3.03;;
23402;SDS011;11874;48.228;11.684;2022-08-19T13:52:45;3.83;;;3.40;;
23402;SDS011;11874;48.228;11.684;2022-08-19T13:55:14;3.33;;;2.83;;
23402;SDS011;11874;48.228;11.684;2022-08-19T13:57:50;3.03;;;2.70;;
23402;SDS011;11874;48.228;11.684;2022-08-19T14:00:19;3.25;;;2.95;;
23402;SDS011;11874;48.228;11.684;2022-08-19T14:02:50;3.58;;;3.20;;
23402;SDS011;11874;48.228;11.684;2022-08-19T14:05:20;3.45;;;3.15;;
23402;SDS011;11874;48.228;11.684;2022-08-19T14:07:48;3.50;;;3.20;;
23402;SDS011;11874;48.228;11.684;2022-08-19T14:10:16;4.10;;;3.70;;
23402;SDS011;11874;48.228;11.684;2022-08-19T14:12:45;4.75;;;3.30;;
23402;SDS011;11874;48.228;11.684;2022-08-19T14:15:13;3.90;;;3.50;;
23402;SDS011;11874;48.228;11.684;2022-08-19T14:17:43;3.58;;;3.28;;
23402;SDS011;11874;48.228;11.684;2022-08-19T14:20:12;2.45;;;2.25;;
23402;SDS011;11874;48.228;11.684;2022-08-19T14:22:45;2.80;;;2.33;;
23402;SDS011;11874;48.228;11.684;2022-08-19T14:25:14;3.38;;;3.08;;
23402;SDS011;11874;48.228;11.684;2022-08-19T14:27:45;3.00;;;2.80;;
23402;SDS011;11874;48.228;11.684;2022-08-19T14:30:15;2.75;;;2.55;;
23402;SDS011;11874;48.228;11.684;2022-08-19T14:32:44;2.97;;;2.78;;
23402;SDS011;11874;48.228;11.684;2022-08-19T14:35:13;2.88;;;2.67;;
23402;SDS011;11874;48.228;11.684;2022-08-19T14:37:42;3.38;;;2.80;;
23402;SDS011;11874;48.228;11.684;2022-08-19T14:40:13;2.63;;;2.42;;
23402;SDS011;11874;48.228;11.684;2022-08-19T14:42:43;2.90;;;2.70;;
23402;SDS011;11874;48.228;11.684;2022-08-19T14:45:11;2.97;;;2.60;;
23402;SDS011;11874;48.228;11.684;2022-08-19T14:47:39;2.70;;;2.45;;
23402;SDS011;11874;48.228;11.684;2022-08-19T14:50:09;2.67;;;2.47;;